sensor_id;sensor_type;location;lat;lon;timestamp;temperature;humidity
15072;DHT22;7635;56.696;13.002;2022-08-01T00:01:33;17.40;99.90
15072;DHT22;7635;56.696;13.002;2022-08-01T00:04:00;17.30;99.90
15072;DHT22;7635;56.696;13.002;2022-08-01T00:06:27;17.30;99.90
15072;DHT22;7635;56.696;13.002;2022-08-01T00:08:54;17.30;99.90
15072;DHT22;7635;56.696;13.002;2022-08-01T00:11:22;17.30;99.90
15072;DHT22;7635;56.696;13.002;2022-08-01T00:13:49;17.20;99.90
15072;DHT22;7635;56.696;13.002;2022-08-01T00:16:16;17.20;99.90
15072;DHT22;7635;56.696;13.002;2022-08-01T00:18:42;17.10;99.90
15072;DHT22;7635;56.696;13.002;2022-08-01T00:21:09;17.10;99.90
15072;DHT22;7635;56.696;13.002;2022-08-01T00:23:36;17.10;99.90
15072;DHT22;7635;56.696;13.002;2022-08-01T00:26:03;17.00;99.90
15072;DHT22;7635;56.696;13.002;2022-08-01T00:28:31;17.00;99.90
15072;DHT22;7635;56.696;13.002;2022-08-01T00:30:57;16.90;99.90
15072;DHT22;7635;56.696;13.002;2022-08-01T00:33:24;16.90;99.90
15072;DHT22;7635;56.696;13.002;2022-08-01T00:35:51;16.90;99.90
15072;DHT22;7635;56.696;13.002;2022-08-01T00:38:18;16.90;99.90
15072;DHT22;7635;56.696;13.002;2022-08-01T00:40:44;16.80;99.90
15072;DHT22;7635;56.696;13.002;2022-08-01T00:43:11;16.80;99.90
15072;DHT22;7635;56.696;13.002;2022-08-01T00:45:39;16.70;99.90
15072;DHT22;7635;56.696;13.002;2022-08-01T00:48:06;16.70;99.90
15072;DHT22;7635;56.696;13.002;2022-08-01T00:50:33;16.70;99.90
15072;DHT22;7635;56.696;13.002;2022-08-01T00:53:00;16.60;99.90
15072;DHT22;7635;56.696;13.002;2022-08-01T00:55:27;16.60;99.90
15072;DHT22;7635;56.696;13.002;2022-08-01T00:57:55;16.60;99.90
15072;DHT22;7635;56.696;13.002;2022-08-01T01:00:22;16.60;99.90
15072;DHT22;7635;56.696;13.002;2022-08-01T01:02:50;16.60;99.90
15072;DHT22;7635;56.696;13.002;2022-08-01T01:05:17;16.60;99.90
15072;DHT22;7635;56.696;13.002;2022-08-01T01:07:50;16.60;99.90
15072;DHT22;7635;56.696;13.002;2022-08-01T01:10:20;16.60;99.90
15072;DHT22;7635;56.696;13.002;2022-08-01T01:12:51;16.60;99.90
15072;DHT22;7635;56.696;13.002;2022-08-01T01:15:23;16.50;99.90
15072;DHT22;7635;56.696;13.002;2022-08-01T01:17:57;16.50;99.90
15072;DHT22;7635;56.696;13.002;2022-08-01T01:20:29;16.50;99.90
15072;DHT22;7635;56.696;13.002;2022-08-01T01:23:13;16.50;99.90
15072;DHT22;7635;56.696;13.002;2022-08-01T01:25:54;16.40;99.90
15072;DHT22;7635;56.696;13.002;2022-08-01T01:28:33;16.40;99.90
15072;DHT22;7635;56.696;13.002;2022-08-01T01:31:02;16.40;99.90
15072;DHT22;7635;56.696;13.002;2022-08-01T01:33:34;16.40;99.90
15072;DHT22;7635;56.696;13.002;2022-08-01T01:36:05;16.40;99.90
15072;DHT22;7635;56.696;13.002;2022-08-01T01:38:34;16.40;99.90
15072;DHT22;7635;56.696;13.002;2022-08-01T01:41:03;16.30;99.90
15072;DHT22;7635;56.696;13.002;2022-08-01T01:43:32;16.30;99.90
15072;DHT22;7635;56.696;13.002;2022-08-01T01:46:02;16.30;99.90
15072;DHT22;7635;56.696;13.002;2022-08-01T01:48:31;16.30;99.90
15072;DHT22;7635;56.696;13.002;2022-08-01T01:50:59;16.30;99.90
15072;DHT22;7635;56.696;13.002;2022-08-01T01:53:28;16.30;99.90
15072;DHT22;7635;56.696;13.002;2022-08-01T01:55:57;16.30;99.90
15072;DHT22;7635;56.696;13.002;2022-08-01T01:58:26;16.30;99.90
15072;DHT22;7635;56.696;13.002;2022-08-01T02:00:55;16.20;99.90
15072;DHT22;7635;56.696;13.002;2022-08-01T02:03:26;16.20;99.90
15072;DHT22;7635;56.696;13.002;2022-08-01T02:05:54;16.20;99.90
15072;DHT22;7635;56.696;13.002;2022-08-01T02:08:22;16.10;99.90
15072;DHT22;7635;56.696;13.002;2022-08-01T02:10:51;16.10;99.90
15072;DHT22;7635;56.696;13.002;2022-08-01T02:13:38;16.10;99.90
15072;DHT22;7635;56.696;13.002;2022-08-01T02:16:06;16.10;99.90
15072;DHT22;7635;56.696;13.002;2022-08-01T02:18:37;16.10;99.90
15072;DHT22;7635;56.696;13.002;2022-08-01T02:21:09;16.00;99.90
15072;DHT22;7635;56.696;13.002;2022-08-01T02:23:39;16.00;99.90
15072;DHT22;7635;56.696;13.002;2022-08-01T02:26:10;16.00;99.90
15072;DHT22;7635;56.696;13.002;2022-08-01T02:28:45;16.00;99.90
15072;DHT22;7635;56.696;13.002;2022-08-01T02:31:14;16.00;99.90
15072;DHT22;7635;56.696;13.002;2022-08-01T02:33:48;16.00;99.90
15072;DHT22;7635;56.696;13.002;2022-08-01T02:36:18;15.90;99.90
15072;DHT22;7635;56.696;13.002;2022-08-01T02:38:46;15.90;99.90
15072;DHT22;7635;56.696;13.002;2022-08-01T02:41:19;15.90;99.90
15072;DHT22;7635;56.696;13.002;2022-08-01T02:43:49;15.90;99.90
15072;DHT22;7635;56.696;13.002;2022-08-01T02:46:21;15.90;99.90
15072;DHT22;7635;56.696;13.002;2022-08-01T02:48:52;15.90;99.90
15072;DHT22;7635;56.696;13.002;2022-08-01T02:51:21;15.90;99.90
15072;DHT22;7635;56.696;13.002;2022-08-01T02:53:50;15.90;99.90
15072;DHT22;7635;56.696;13.002;2022-08-01T02:56:19;15.90;99.90
15072;DHT22;7635;56.696;13.002;2022-08-01T02:58:47;15.90;99.90
15072;DHT22;7635;56.696;13.002;2022-08-01T03:01:15;15.90;99.90
15072;DHT22;7635;56.696;13.002;2022-08-01T03:03:43;15.90;99.90
15072;DHT22;7635;56.696;13.002;2022-08-01T03:06:11;15.90;99.90
15072;DHT22;7635;56.696;13.002;2022-08-01T03:08:39;15.90;99.90
15072;DHT22;7635;56.696;13.002;2022-08-01T03:11:08;15.90;99.90
15072;DHT22;7635;56.696;13.002;2022-08-01T03:13:35;15.90;99.90
15072;DHT22;7635;56.696;13.002;2022-08-01T03:16:04;15.90;99.90
15072;DHT22;7635;56.696;13.002;2022-08-01T03:18:32;15.90;99.90
15072;DHT22;7635;56.696;13.002;2022-08-01T03:20:59;15.90;99.90
15072;DHT22;7635;56.696;13.002;2022-08-01T03:23:30;15.80;99.90
15072;DHT22;7635;56.696;13.002;2022-08-01T03:25:59;15.80;99.90
15072;DHT22;7635;56.696;13.002;2022-08-01T03:28:27;15.80;99.90
15072;DHT22;7635;56.696;13.002;2022-08-01T03:30:56;15.80;99.90
15072;DHT22;7635;56.696;13.002;2022-08-01T03:33:23;15.80;99.90
15072;DHT22;7635;56.696;13.002;2022-08-01T03:35:53;15.80;99.90
15072;DHT22;7635;56.696;13.002;2022-08-01T03:38:23;15.80;99.90
15072;DHT22;7635;56.696;13.002;2022-08-01T03:40:55;15.80;99.90
15072;DHT22;7635;56.696;13.002;2022-08-01T03:43:28;15.80;99.90
15072;DHT22;7635;56.696;13.002;2022-08-01T03:46:01;15.80;99.90
15072;DHT22;7635;56.696;13.002;2022-08-01T03:48:32;15.80;99.90
15072;DHT22;7635;56.696;13.002;2022-08-01T03:51:02;15.80;99.90
15072;DHT22;7635;56.696;13.002;2022-08-01T03:53:32;15.80;99.90
15072;DHT22;7635;56.696;13.002;2022-08-01T03:56:02;15.80;99.90
15072;DHT22;7635;56.696;13.002;2022-08-01T03:58:30;15.80;99.90
15072;DHT22;7635;56.696;13.002;2022-08-01T04:00:58;15.80;99.90
15072;DHT22;7635;56.696;13.002;2022-08-01T04:03:26;15.80;99.90
15072;DHT22;7635;56.696;13.002;2022-08-01T04:05:53;15.80;99.90
15072;DHT22;7635;56.696;13.002;2022-08-01T04:08:20;15.80;99.90
15072;DHT22;7635;56.696;13.002;2022-08-01T04:10:46;15.80;99.90
15072;DHT22;7635;56.696;13.002;2022-08-01T04:13:14;15.80;99.90
15072;DHT22;7635;56.696;13.002;2022-08-01T04:15:41;15.80;99.90
15072;DHT22;7635;56.696;13.002;2022-08-01T04:18:08;15.80;99.90
15072;DHT22;7635;56.696;13.002;2022-08-01T04:20:35;15.80;99.90
15072;DHT22;7635;56.696;13.002;2022-08-01T04:23:03;15.80;99.90
15072;DHT22;7635;56.696;13.002;2022-08-01T04:25:33;15.80;99.90
15072;DHT22;7635;56.696;13.002;2022-08-01T04:28:01;15.80;99.90
15072;DHT22;7635;56.696;13.002;2022-08-01T04:30:34;15.80;99.90
15072;DHT22;7635;56.696;13.002;2022-08-01T04:33:02;15.80;99.90
15072;DHT22;7635;56.696;13.002;2022-08-01T04:35:32;15.80;99.90
15072;DHT22;7635;56.696;13.002;2022-08-01T04:38:01;15.80;99.90
15072;DHT22;7635;56.696;13.002;2022-08-01T04:40:29;15.90;99.90
15072;DHT22;7635;56.696;13.002;2022-08-01T04:42:56;15.90;99.90
15072;DHT22;7635;56.696;13.002;2022-08-01T04:45:23;15.90;99.90
15072;DHT22;7635;56.696;13.002;2022-08-01T04:47:52;15.90;99.90
15072;DHT22;7635;56.696;13.002;2022-08-01T04:50:19;15.90;99.90
15072;DHT22;7635;56.696;13.002;2022-08-01T04:52:47;16.00;99.90
15072;DHT22;7635;56.696;13.002;2022-08-01T04:55:14;16.00;99.90
15072;DHT22;7635;56.696;13.002;2022-08-01T04:57:44;16.00;99.90
15072;DHT22;7635;56.696;13.002;2022-08-01T05:00:12;16.00;99.90
15072;DHT22;7635;56.696;13.002;2022-08-01T05:02:39;16.00;99.90
15072;DHT22;7635;56.696;13.002;2022-08-01T05:05:07;16.00;99.90
15072;DHT22;7635;56.696;13.002;2022-08-01T05:07:36;16.00;99.90
15072;DHT22;7635;56.696;13.002;2022-08-01T05:10:03;16.10;99.90
15072;DHT22;7635;56.696;13.002;2022-08-01T05:12:30;16.10;99.90
15072;DHT22;7635;56.696;13.002;2022-08-01T05:15:00;16.10;99.90
15072;DHT22;7635;56.696;13.002;2022-08-01T05:17:27;16.10;99.90
15072;DHT22;7635;56.696;13.002;2022-08-01T05:19:54;16.20;99.90
15072;DHT22;7635;56.696;13.002;2022-08-01T05:22:22;16.30;99.90
15072;DHT22;7635;56.696;13.002;2022-08-01T05:24:50;16.40;99.90
15072;DHT22;7635;56.696;13.002;2022-08-01T05:27:18;16.50;99.90
15072;DHT22;7635;56.696;13.002;2022-08-01T05:29:44;16.60;99.90
15072;DHT22;7635;56.696;13.002;2022-08-01T05:32:11;16.80;99.90
15072;DHT22;7635;56.696;13.002;2022-08-01T05:34:38;16.90;99.90
15072;DHT22;7635;56.696;13.002;2022-08-01T05:37:04;17.00;99.90
15072;DHT22;7635;56.696;13.002;2022-08-01T05:39:34;17.10;99.90
15072;DHT22;7635;56.696;13.002;2022-08-01T05:42:00;17.20;99.90
15072;DHT22;7635;56.696;13.002;2022-08-01T05:44:27;17.30;99.90
15072;DHT22;7635;56.696;13.002;2022-08-01T05:46:54;17.30;99.90
15072;DHT22;7635;56.696;13.002;2022-08-01T05:49:21;17.30;99.90
15072;DHT22;7635;56.696;13.002;2022-08-01T05:51:48;17.40;99.90
15072;DHT22;7635;56.696;13.002;2022-08-01T05:54:14;17.40;99.90
15072;DHT22;7635;56.696;13.002;2022-08-01T05:56:43;17.50;99.90
15072;DHT22;7635;56.696;13.002;2022-08-01T05:59:09;17.60;99.90
15072;DHT22;7635;56.696;13.002;2022-08-01T06:01:36;17.60;99.90
15072;DHT22;7635;56.696;13.002;2022-08-01T06:04:03;17.60;99.90
15072;DHT22;7635;56.696;13.002;2022-08-01T06:06:30;17.60;99.90
15072;DHT22;7635;56.696;13.002;2022-08-01T06:08:57;17.70;99.90
15072;DHT22;7635;56.696;13.002;2022-08-01T06:11:24;17.70;99.90
15072;DHT22;7635;56.696;13.002;2022-08-01T06:13:52;17.70;99.90
15072;DHT22;7635;56.696;13.002;2022-08-01T06:16:19;17.80;99.90
15072;DHT22;7635;56.696;13.002;2022-08-01T06:18:45;17.80;99.90
15072;DHT22;7635;56.696;13.002;2022-08-01T06:21:12;17.80;99.90
15072;DHT22;7635;56.696;13.002;2022-08-01T06:23:39;17.90;99.90
15072;DHT22;7635;56.696;13.002;2022-08-01T06:26:08;18.00;99.90
15072;DHT22;7635;56.696;13.002;2022-08-01T06:28:34;18.10;99.90
15072;DHT22;7635;56.696;13.002;2022-08-01T06:31:03;18.20;99.90
15072;DHT22;7635;56.696;13.002;2022-08-01T06:33:29;18.20;99.90
15072;DHT22;7635;56.696;13.002;2022-08-01T06:35:56;18.30;99.90
15072;DHT22;7635;56.696;13.002;2022-08-01T06:38:23;18.40;99.90
15072;DHT22;7635;56.696;13.002;2022-08-01T06:40:50;18.50;99.90
15072;DHT22;7635;56.696;13.002;2022-08-01T06:43:17;18.50;99.90
15072;DHT22;7635;56.696;13.002;2022-08-01T06:45:44;18.50;99.90
15072;DHT22;7635;56.696;13.002;2022-08-01T06:48:13;18.50;99.90
15072;DHT22;7635;56.696;13.002;2022-08-01T06:50:39;18.40;99.90
15072;DHT22;7635;56.696;13.002;2022-08-01T06:53:06;18.40;99.90
15072;DHT22;7635;56.696;13.002;2022-08-01T06:55:33;18.30;99.90
15072;DHT22;7635;56.696;13.002;2022-08-01T06:58:00;18.20;99.90
15072;DHT22;7635;56.696;13.002;2022-08-01T07:00:27;18.30;99.90
15072;DHT22;7635;56.696;13.002;2022-08-01T07:02:55;18.20;99.90
15072;DHT22;7635;56.696;13.002;2022-08-01T07:05:23;18.20;99.90
15072;DHT22;7635;56.696;13.002;2022-08-01T07:07:50;18.20;99.90
15072;DHT22;7635;56.696;13.002;2022-08-01T07:10:17;18.20;99.90
15072;DHT22;7635;56.696;13.002;2022-08-01T07:12:44;18.20;99.90
15072;DHT22;7635;56.696;13.002;2022-08-01T07:15:11;18.20;99.90
15072;DHT22;7635;56.696;13.002;2022-08-01T07:17:38;18.20;99.90
15072;DHT22;7635;56.696;13.002;2022-08-01T07:20:07;18.20;99.90
15072;DHT22;7635;56.696;13.002;2022-08-01T07:22:35;18.20;99.90
15072;DHT22;7635;56.696;13.002;2022-08-01T07:25:04;18.30;99.90
15072;DHT22;7635;56.696;13.002;2022-08-01T07:27:31;18.30;99.90
15072;DHT22;7635;56.696;13.002;2022-08-01T07:29:58;18.30;99.90
15072;DHT22;7635;56.696;13.002;2022-08-01T07:32:24;18.30;99.90
15072;DHT22;7635;56.696;13.002;2022-08-01T07:34:51;18.30;99.90
15072;DHT22;7635;56.696;13.002;2022-08-01T07:37:18;18.20;99.90
15072;DHT22;7635;56.696;13.002;2022-08-01T07:39:46;18.20;99.90
15072;DHT22;7635;56.696;13.002;2022-08-01T07:42:13;18.20;99.90
15072;DHT22;7635;56.696;13.002;2022-08-01T07:44:40;18.20;99.90
15072;DHT22;7635;56.696;13.002;2022-08-01T07:47:06;18.20;99.90
15072;DHT22;7635;56.696;13.002;2022-08-01T07:49:33;18.20;99.90
15072;DHT22;7635;56.696;13.002;2022-08-01T07:52:00;18.20;99.90
15072;DHT22;7635;56.696;13.002;2022-08-01T07:54:27;18.20;99.90
15072;DHT22;7635;56.696;13.002;2022-08-01T07:56:55;18.20;99.90
15072;DHT22;7635;56.696;13.002;2022-08-01T07:59:22;18.20;99.90
15072;DHT22;7635;56.696;13.002;2022-08-01T08:01:49;18.20;99.90
15072;DHT22;7635;56.696;13.002;2022-08-01T08:04:16;18.20;99.90
15072;DHT22;7635;56.696;13.002;2022-08-01T08:06:43;18.30;99.90
15072;DHT22;7635;56.696;13.002;2022-08-01T08:09:10;18.30;99.90
15072;DHT22;7635;56.696;13.002;2022-08-01T08:11:37;18.30;99.90
15072;DHT22;7635;56.696;13.002;2022-08-01T08:14:05;18.30;99.90
15072;DHT22;7635;56.696;13.002;2022-08-01T08:16:32;18.40;99.90
15072;DHT22;7635;56.696;13.002;2022-08-01T08:18:59;18.40;99.90
15072;DHT22;7635;56.696;13.002;2022-08-01T08:21:25;18.40;99.90
15072;DHT22;7635;56.696;13.002;2022-08-01T08:23:53;18.30;99.90
15072;DHT22;7635;56.696;13.002;2022-08-01T08:26:37;18.20;99.90
15072;DHT22;7635;56.696;13.002;2022-08-01T08:29:05;18.20;99.90
15072;DHT22;7635;56.696;13.002;2022-08-01T08:31:32;18.10;99.90
15072;DHT22;7635;56.696;13.002;2022-08-01T08:33:59;18.10;99.90
15072;DHT22;7635;56.696;13.002;2022-08-01T08:36:26;18.10;99.90
15072;DHT22;7635;56.696;13.002;2022-08-01T08:38:52;18.10;99.90
15072;DHT22;7635;56.696;13.002;2022-08-01T08:41:21;18.20;99.90
15072;DHT22;7635;56.696;13.002;2022-08-01T08:43:48;18.20;99.90
15072;DHT22;7635;56.696;13.002;2022-08-01T08:46:16;18.20;99.90
15072;DHT22;7635;56.696;13.002;2022-08-01T08:48:45;18.30;99.90
15072;DHT22;7635;56.696;13.002;2022-08-01T08:51:12;18.30;99.90
15072;DHT22;7635;56.696;13.002;2022-08-01T08:53:40;18.40;99.90
15072;DHT22;7635;56.696;13.002;2022-08-01T08:56:11;18.40;99.90
15072;DHT22;7635;56.696;13.002;2022-08-01T08:58:39;18.40;99.90
15072;DHT22;7635;56.696;13.002;2022-08-01T09:01:07;18.40;99.90
15072;DHT22;7635;56.696;13.002;2022-08-01T09:03:36;18.40;99.90
15072;DHT22;7635;56.696;13.002;2022-08-01T09:06:04;18.40;99.90
15072;DHT22;7635;56.696;13.002;2022-08-01T09:08:30;18.40;99.90
15072;DHT22;7635;56.696;13.002;2022-08-01T09:10:58;18.40;99.90
15072;DHT22;7635;56.696;13.002;2022-08-01T09:13:25;18.40;99.90
15072;DHT22;7635;56.696;13.002;2022-08-01T09:15:54;18.30;99.90
15072;DHT22;7635;56.696;13.002;2022-08-01T09:18:29;18.20;99.90
15072;DHT22;7635;56.696;13.002;2022-08-01T09:21:13;18.20;99.90
15072;DHT22;7635;56.696;13.002;2022-08-01T09:23:43;18.20;99.90
15072;DHT22;7635;56.696;13.002;2022-08-01T09:26:12;18.30;99.90
15072;DHT22;7635;56.696;13.002;2022-08-01T09:28:39;18.20;99.90
15072;DHT22;7635;56.696;13.002;2022-08-01T09:31:09;18.20;99.90
15072;DHT22;7635;56.696;13.002;2022-08-01T09:33:50;18.20;99.90
15072;DHT22;7635;56.696;13.002;2022-08-01T09:36:19;18.10;99.90
15072;DHT22;7635;56.696;13.002;2022-08-01T09:38:46;18.10;99.90
15072;DHT22;7635;56.696;13.002;2022-08-01T09:41:13;18.00;99.90
15072;DHT22;7635;56.696;13.002;2022-08-01T09:43:39;18.00;99.90
15072;DHT22;7635;56.696;13.002;2022-08-01T09:46:10;18.00;99.90
15072;DHT22;7635;56.696;13.002;2022-08-01T09:48:37;18.00;99.90
15072;DHT22;7635;56.696;13.002;2022-08-01T09:51:06;18.00;99.90
15072;DHT22;7635;56.696;13.002;2022-08-01T09:53:48;18.00;99.90
15072;DHT22;7635;56.696;13.002;2022-08-01T09:56:15;18.00;99.90
15072;DHT22;7635;56.696;13.002;2022-08-01T09:58:55;17.90;99.90
15072;DHT22;7635;56.696;13.002;2022-08-01T10:01:23;17.90;99.90
15072;DHT22;7635;56.696;13.002;2022-08-01T10:04:08;17.90;99.90
15072;DHT22;7635;56.696;13.002;2022-08-01T10:06:35;17.90;99.90
15072;DHT22;7635;56.696;13.002;2022-08-01T10:09:04;17.80;99.90
15072;DHT22;7635;56.696;13.002;2022-08-01T10:11:32;17.80;99.90
15072;DHT22;7635;56.696;13.002;2022-08-01T10:13:59;17.80;99.90
15072;DHT22;7635;56.696;13.002;2022-08-01T10:16:28;17.80;99.90
15072;DHT22;7635;56.696;13.002;2022-08-01T10:18:57;17.80;99.90
15072;DHT22;7635;56.696;13.002;2022-08-01T10:21:25;17.80;99.90
15072;DHT22;7635;56.696;13.002;2022-08-01T10:23:54;17.80;99.90
15072;DHT22;7635;56.696;13.002;2022-08-01T10:26:25;17.90;99.90
15072;DHT22;7635;56.696;13.002;2022-08-01T10:28:53;17.90;99.90
15072;DHT22;7635;56.696;13.002;2022-08-01T10:31:20;18.00;99.90
15072;DHT22;7635;56.696;13.002;2022-08-01T10:33:47;18.00;99.90
15072;DHT22;7635;56.696;13.002;2022-08-01T10:36:17;18.00;99.90
15072;DHT22;7635;56.696;13.002;2022-08-01T10:38:45;18.00;99.90
15072;DHT22;7635;56.696;13.002;2022-08-01T10:41:12;18.00;99.90
15072;DHT22;7635;56.696;13.002;2022-08-01T10:43:42;18.00;99.90
15072;DHT22;7635;56.696;13.002;2022-08-01T10:46:09;18.00;99.90
15072;DHT22;7635;56.696;13.002;2022-08-01T10:48:43;17.90;99.90
15072;DHT22;7635;56.696;13.002;2022-08-01T10:51:12;18.00;99.90
15072;DHT22;7635;56.696;13.002;2022-08-01T10:53:46;18.00;99.90
15072;DHT22;7635;56.696;13.002;2022-08-01T10:56:14;17.90;99.90
15072;DHT22;7635;56.696;13.002;2022-08-01T10:58:44;17.90;99.90
15072;DHT22;7635;56.696;13.002;2022-08-01T11:01:21;18.00;99.90
15072;DHT22;7635;56.696;13.002;2022-08-01T11:04:12;18.00;99.90
15072;DHT22;7635;56.696;13.002;2022-08-01T11:06:52;18.10;99.90
15072;DHT22;7635;56.696;13.002;2022-08-01T11:09:31;18.10;99.90
15072;DHT22;7635;56.696;13.002;2022-08-01T11:12:07;18.10;99.90
15072;DHT22;7635;56.696;13.002;2022-08-01T11:17:43;18.10;99.90
15072;DHT22;7635;56.696;13.002;2022-08-01T11:20:14;18.20;99.90
15072;DHT22;7635;56.696;13.002;2022-08-01T11:26:23;18.20;99.90
15072;DHT22;7635;56.696;13.002;2022-08-01T11:29:16;18.30;99.90
15072;DHT22;7635;56.696;13.002;2022-08-01T11:31:44;18.50;99.90
15072;DHT22;7635;56.696;13.002;2022-08-01T11:34:11;18.70;99.90
15072;DHT22;7635;56.696;13.002;2022-08-01T11:36:38;18.80;99.90
15072;DHT22;7635;56.696;13.002;2022-08-01T11:39:14;18.90;99.90
15072;DHT22;7635;56.696;13.002;2022-08-01T11:41:42;19.10;99.90
15072;DHT22;7635;56.696;13.002;2022-08-01T11:44:10;19.30;99.90
15072;DHT22;7635;56.696;13.002;2022-08-01T11:46:56;19.60;99.90
15072;DHT22;7635;56.696;13.002;2022-08-01T11:49:32;19.90;99.90
15072;DHT22;7635;56.696;13.002;2022-08-01T11:52:06;20.20;99.90
15072;DHT22;7635;56.696;13.002;2022-08-01T11:54:35;20.50;99.90
15072;DHT22;7635;56.696;13.002;2022-08-01T11:57:04;20.80;99.90
15072;DHT22;7635;56.696;13.002;2022-08-01T11:59:37;21.10;99.90
15072;DHT22;7635;56.696;13.002;2022-08-01T12:02:17;21.50;99.90
15072;DHT22;7635;56.696;13.002;2022-08-01T12:04:46;21.60;99.90
15072;DHT22;7635;56.696;13.002;2022-08-01T12:07:13;21.70;99.90
15072;DHT22;7635;56.696;13.002;2022-08-01T12:09:40;21.80;99.90
15072;DHT22;7635;56.696;13.002;2022-08-01T12:12:07;21.70;99.90
15072;DHT22;7635;56.696;13.002;2022-08-01T12:14:35;21.80;99.90
15072;DHT22;7635;56.696;13.002;2022-08-01T12:17:01;21.80;99.90
15072;DHT22;7635;56.696;13.002;2022-08-01T12:19:30;22.00;99.90
15072;DHT22;7635;56.696;13.002;2022-08-01T12:22:07;21.90;99.90
15072;DHT22;7635;56.696;13.002;2022-08-01T12:24:34;21.90;99.90
15072;DHT22;7635;56.696;13.002;2022-08-01T12:27:02;22.00;99.90
15072;DHT22;7635;56.696;13.002;2022-08-01T12:29:36;22.00;99.90
15072;DHT22;7635;56.696;13.002;2022-08-01T12:32:04;22.00;99.90
15072;DHT22;7635;56.696;13.002;2022-08-01T12:34:32;22.00;99.90
15072;DHT22;7635;56.696;13.002;2022-08-01T12:37:01;22.10;99.90
15072;DHT22;7635;56.696;13.002;2022-08-01T12:39:32;22.10;99.90
15072;DHT22;7635;56.696;13.002;2022-08-01T12:41:59;22.00;99.90
15072;DHT22;7635;56.696;13.002;2022-08-01T12:44:28;22.10;99.90
15072;DHT22;7635;56.696;13.002;2022-08-01T12:46:56;22.30;99.90
15072;DHT22;7635;56.696;13.002;2022-08-01T12:49:23;22.30;99.90
15072;DHT22;7635;56.696;13.002;2022-08-01T12:51:51;22.50;99.90
15072;DHT22;7635;56.696;13.002;2022-08-01T12:54:18;22.70;99.90
15072;DHT22;7635;56.696;13.002;2022-08-01T12:56:45;22.50;99.90
15072;DHT22;7635;56.696;13.002;2022-08-01T12:59:30;22.50;99.90
15072;DHT22;7635;56.696;13.002;2022-08-01T13:02:08;22.40;99.90
15072;DHT22;7635;56.696;13.002;2022-08-01T13:04:49;22.40;99.90
15072;DHT22;7635;56.696;13.002;2022-08-01T13:07:17;22.40;99.90
15072;DHT22;7635;56.696;13.002;2022-08-01T13:09:49;22.40;99.90
15072;DHT22;7635;56.696;13.002;2022-08-01T13:12:16;22.40;99.90
15072;DHT22;7635;56.696;13.002;2022-08-01T13:14:43;22.40;99.90
15072;DHT22;7635;56.696;13.002;2022-08-01T13:17:09;22.40;99.90
15072;DHT22;7635;56.696;13.002;2022-08-01T13:19:42;22.50;99.90
15072;DHT22;7635;56.696;13.002;2022-08-01T13:22:09;22.40;99.90
15072;DHT22;7635;56.696;13.002;2022-08-01T13:24:38;22.30;99.90
15072;DHT22;7635;56.696;13.002;2022-08-01T13:27:05;22.30;99.90
15072;DHT22;7635;56.696;13.002;2022-08-01T13:29:33;22.30;99.90
15072;DHT22;7635;56.696;13.002;2022-08-01T13:32:12;22.40;99.90
15072;DHT22;7635;56.696;13.002;2022-08-01T13:34:39;22.50;99.90
15072;DHT22;7635;56.696;13.002;2022-08-01T13:37:06;22.50;99.90
15072;DHT22;7635;56.696;13.002;2022-08-01T13:39:33;22.50;99.90
15072;DHT22;7635;56.696;13.002;2022-08-01T13:42:14;22.30;99.90
15072;DHT22;7635;56.696;13.002;2022-08-01T13:44:41;22.20;99.90
15072;DHT22;7635;56.696;13.002;2022-08-01T13:47:10;22.10;99.90
15072;DHT22;7635;56.696;13.002;2022-08-01T13:49:37;22.10;99.90
15072;DHT22;7635;56.696;13.002;2022-08-01T13:52:05;22.00;99.90
15072;DHT22;7635;56.696;13.002;2022-08-01T13:54:32;21.90;99.90
15072;DHT22;7635;56.696;13.002;2022-08-01T13:56:59;21.90;99.90
15072;DHT22;7635;56.696;13.002;2022-08-01T13:59:27;21.90;99.90
15072;DHT22;7635;56.696;13.002;2022-08-01T14:01:54;21.80;99.90
15072;DHT22;7635;56.696;13.002;2022-08-01T14:04:21;21.80;99.90
15072;DHT22;7635;56.696;13.002;2022-08-01T14:06:47;21.80;99.90
15072;DHT22;7635;56.696;13.002;2022-08-01T14:09:14;21.80;99.90
15072;DHT22;7635;56.696;13.002;2022-08-01T14:11:42;21.70;99.90
15072;DHT22;7635;56.696;13.002;2022-08-01T14:14:09;21.60;99.90
15072;DHT22;7635;56.696;13.002;2022-08-01T14:16:37;21.60;99.90
15072;DHT22;7635;56.696;13.002;2022-08-01T14:19:04;21.50;99.90
15072;DHT22;7635;56.696;13.002;2022-08-01T14:21:31;21.40;99.90
15072;DHT22;7635;56.696;13.002;2022-08-01T14:23:58;21.40;99.90
15072;DHT22;7635;56.696;13.002;2022-08-01T14:26:25;21.40;99.90
15072;DHT22;7635;56.696;13.002;2022-08-01T14:28:52;21.50;99.90
15072;DHT22;7635;56.696;13.002;2022-08-01T14:31:18;21.50;99.90
15072;DHT22;7635;56.696;13.002;2022-08-01T14:33:47;21.40;99.90
15072;DHT22;7635;56.696;13.002;2022-08-01T14:36:14;21.40;99.90
15072;DHT22;7635;56.696;13.002;2022-08-01T14:38:40;21.40;99.90
15072;DHT22;7635;56.696;13.002;2022-08-01T14:41:07;21.20;99.90
15072;DHT22;7635;56.696;13.002;2022-08-01T14:43:34;21.20;99.90
15072;DHT22;7635;56.696;13.002;2022-08-01T14:46:01;21.00;99.90
15072;DHT22;7635;56.696;13.002;2022-08-01T14:48:28;21.00;99.90
15072;DHT22;7635;56.696;13.002;2022-08-01T14:50:57;21.00;99.90
15072;DHT22;7635;56.696;13.002;2022-08-01T14:53:24;21.00;99.90
15072;DHT22;7635;56.696;13.002;2022-08-01T14:55:51;21.00;99.90
15072;DHT22;7635;56.696;13.002;2022-08-01T14:58:18;21.00;99.90
15072;DHT22;7635;56.696;13.002;2022-08-01T15:00:44;21.00;99.90
15072;DHT22;7635;56.696;13.002;2022-08-01T15:03:11;21.00;99.90
15072;DHT22;7635;56.696;13.002;2022-08-01T15:05:38;21.00;99.90
15072;DHT22;7635;56.696;13.002;2022-08-01T15:08:07;21.00;99.90
15072;DHT22;7635;56.696;13.002;2022-08-01T15:10:33;20.90;99.90
15072;DHT22;7635;56.696;13.002;2022-08-01T15:13:00;20.90;99.90
15072;DHT22;7635;56.696;13.002;2022-08-01T15:15:27;20.80;99.90
15072;DHT22;7635;56.696;13.002;2022-08-01T15:17:54;20.80;99.90
15072;DHT22;7635;56.696;13.002;2022-08-01T15:20:21;20.80;99.90
15072;DHT22;7635;56.696;13.002;2022-08-01T15:22:48;20.80;99.90
15072;DHT22;7635;56.696;13.002;2022-08-01T15:25:16;20.80;99.90
15072;DHT22;7635;56.696;13.002;2022-08-01T15:27:43;20.70;99.90
15072;DHT22;7635;56.696;13.002;2022-08-01T15:30:11;20.60;99.90
15072;DHT22;7635;56.696;13.002;2022-08-01T15:32:38;20.60;99.90
15072;DHT22;7635;56.696;13.002;2022-08-01T15:35:05;20.60;99.90
15072;DHT22;7635;56.696;13.002;2022-08-01T15:37:35;20.50;99.90
15072;DHT22;7635;56.696;13.002;2022-08-01T15:40:03;20.60;99.90
15072;DHT22;7635;56.696;13.002;2022-08-01T15:42:31;20.50;99.90
15072;DHT22;7635;56.696;13.002;2022-08-01T15:44:58;20.50;99.90
15072;DHT22;7635;56.696;13.002;2022-08-01T15:47:24;20.50;99.90